CheckWX is a tool to help pilots better visualize weather data.  It is not intended as a substitute for an official pre-flight weather briefing.

20:30:26 UTC

VTUJ TAF
Surin Airport
Thailand
TAF VTUJ 221700Z 2218/2318 23005KT 8000 NSC BECMG 2220/2222 5000 BR BECMG 2302/2304 7000 NSW NSC

Mar-22@
18:00 UTC

Mar-22 @ 18:00 UTC

Mar-22@
20:00 UTC

Mar-22 @ 20:00 UTC

TAF VTUJ 221700Z 2218/2318 23005KT 8000 NSC

Expired

Wind
  • 230° at 5 KTS
Cloud Levels
  • No significant clouds

Mar-22@
20:00 UTC

Mar-22 @ 20:00 UTC

Mar-23@
02:00 UTC

Mar-23 @ 02:00 UTC

BECMG 2220/2222 5000 BR

Becoming

Becoming Conditions expected by Fri, Mar 22, 2019 @ 22:00 UTC

Wind
  • 230° at 5 KTS
Conditions
Mist
Cloud Levels
  • No significant clouds

Mar-23@
02:00 UTC

Mar-23 @ 02:00 UTC

Mar-23@
18:00 UTC

Mar-23 @ 18:00 UTC

BECMG 2302/2304 7000 NSW NSC

Becoming

Becoming Conditions expected by Sat, Mar 23, 2019 @ 04:00 UTC

Wind
  • 230° at 5 KTS
Conditions
No significant weather
Cloud Levels
  • No significant clouds